Time;durP1;ratioP1;P1;durP2;ratioP2;P2;SDS_P1;SDS_P2;PMS_P1;PMS_P2;Temp;Humidity;BMP_temperature;BMP_pressure;BME280_temperature;BME280_humidity;BME280_pressure;Samples;Min_cycle;Max_cycle;Signal;HPM_P1;HPM_P2
2024/03/23 00:00:31;;;;;;;13.65;6.20;;;;;;;11.28;100.00;98849.72;4796448;29;20047;-96
2024/03/23 00:02:58;;;;;;;10.25;5.82;;;;;;;10.52;100.00;98734.78;4796452;29;20038;-95
2024/03/23 00:05:25;;;;;;;11.13;6.25;;;;;;;11.22;100.00;98849.91;4796102;29;20057;-96
2024/03/23 00:07:54;;;;;;;14.10;6.85;;;;;;;11.22;100.00;98851.69;4838258;24;20093;-96
2024/03/23 00:10:21;;;;;;;14.13;5.78;;;;;;;10.78;100.00;98788.16;4807648;29;20042;-96
2024/03/23 00:12:48;;;;;;;11.23;5.90;;;;;;;11.08;100.00;98842.31;4807274;29;20138;-96
2024/03/23 00:15:15;;;;;;;15.80;8.07;;;;;;;10.24;100.00;98707.16;4807574;29;20179;-96
2024/03/23 00:17:42;;;;;;;15.90;7.50;;;;;;;10.45;100.00;98734.09;4806929;29;20047;-96
2024/03/23 00:20:09;;;;;;;13.20;7.18;;;;;;;10.59;100.00;98762.97;4807162;29;20487;-96
2024/03/23 00:22:36;;;;;;;14.30;6.75;;;;;;;10.98;100.00;98842.59;4807364;29;20050;-96
2024/03/23 00:25:06;;;;;;;14.82;7.13;;;;;;;11.01;100.00;98851.34;4806385;29;20078;-96
2024/03/23 00:27:34;;;;;;;;;;;;;;;10.95;100.00;98834.69;4807613;29;20055;-95
2024/03/23 00:30:04;;;;;;;14.25;6.32;;;;;;;10.68;100.00;98802.63;4806485;29;20028;-95
2024/03/23 00:32:31;;;;;;;13.23;6.68;;;;;;;9.95;100.00;98702.59;4806588;29;20055;-96
2024/03/23 00:34:57;;;;;;;12.00;6.05;;;;;;;10.77;100.00;98844.06;4807473;29;20492;-96
2024/03/23 00:37:25;;;;;;;12.15;6.30;;;;;;;10.44;100.00;98783.75;4806515;29;20055;-96
2024/03/23 00:39:52;;;;;;;10.95;6.68;;;;;;;10.13;100.00;98727.84;4806667;29;20047;-95
2024/03/23 00:42:19;;;;;;;12.15;6.38;;;;;;;10.50;100.00;98843.00;4806589;29;20096;-95
2024/03/23 00:44:46;;;;;;;15.77;7.75;;;;;;;10.61;100.00;98832.97;4806410;29;20058;-95
2024/03/23 00:47:14;;;;;;;12.43;7.00;;;;;;;10.51;100.00;98842.06;4806455;29;20050;-95
2024/03/23 00:49:41;;;;;;;11.50;5.93;;;;;;;10.30;100.00;98785.00;4806328;29;20051;-95
2024/03/23 00:52:08;;;;;;;16.58;7.10;;;;;;;10.51;100.00;98836.75;4806491;29;20093;-96
2024/03/23 00:54:34;;;;;;;17.38;6.75;;;;;;;10.45;100.00;98809.44;4806670;29;20043;-95
2024/03/23 00:57:00;;;;;;;12.80;7.38;;;;;;;10.54;100.00;98824.28;4807190;29;20080;-96
2024/03/23 00:59:28;;;;;;;12.55;6.13;;;;;;;10.65;100.00;98822.19;4809972;29;20051;-96
2024/03/23 01:01:54;;;;;;;15.90;7.53;;;;;;;10.73;100.00;98818.44;4824415;29;20103;-95
2024/03/23 01:04:21;;;;;;;12.05;6.10;;;;;;;10.55;100.00;98766.63;4809970;29;20062;-95
2024/03/23 01:06:47;;;;;;;14.63;6.50;;;;;;;10.84;100.00;98825.25;4809576;29;20051;-96
2024/03/23 01:09:13;;;;;;;11.75;6.78;;;;;;;10.81;100.00;98814.66;4809861;29;20043;-96
2024/03/23 01:11:39;;;;;;;14.38;6.75;;;;;;;10.59;100.00;98809.06;4817711;29;20107;-96
2024/03/23 01:14:06;;;;;;;11.93;6.15;;;;;;;10.28;100.00;98748.69;4828020;29;20047;-94
2024/03/23 01:16:32;;;;;;;11.88;6.40;;;;;;;9.59;100.00;98670.75;4827487;29;20078;-96
2024/03/23 01:18:58;;;;;;;15.88;7.40;;;;;;;10.41;100.00;98810.41;4827670;29;20051;-96
2024/03/23 01:21:25;;;;;;;17.50;8.32;;;;;;;10.46;100.00;98803.19;4827325;29;20050;-95
2024/03/23 01:23:51;;;;;;;14.38;7.07;;;;;;;9.97;100.00;98700.78;4827465;29;20529;-96
2024/03/23 01:26:19;;;;;;;14.90;6.88;;;;;;;10.62;100.00;98795.66;4827647;29;20046;-95
2024/03/23 01:28:45;;;;;;;14.55;7.03;;;;;;;9.83;100.00;98665.75;4828097;29;20057;-96
2024/03/23 01:31:11;;;;;;;13.07;6.07;;;;;;;10.24;100.00;98724.91;4843990;29;20054;-96
2024/03/23 01:33:37;;;;;;;12.38;6.00;;;;;;;10.24;100.00;98715.13;4844242;29;20407;-95
2024/03/23 01:36:03;;;;;;;14.32;6.30;;;;;;;9.95;100.00;98659.22;4829837;29;20051;-96
2024/03/23 01:38:31;;;;;;;10.93;6.15;;;;;;;10.73;100.00;98799.81;4846124;29;20495;-96
2024/03/23 01:40:58;;;;;;;14.13;6.88;;;;;;;9.80;100.00;98639.25;4835538;29;20046;-95
2024/03/23 01:43:24;;;;;;;18.92;6.38;;;;;;;10.25;100.00;98729.28;4848664;29;20034;-96
2024/03/23 01:45:50;;;;;;;14.57;6.18;;;;;;;9.79;100.00;98645.47;4864921;29;20035;-95
2024/03/23 01:48:16;;;;;;;13.68;6.93;;;;;;;10.61;100.00;98793.06;4849574;29;20037;-94
2024/03/23 01:50:42;;;;;;;10.43;5.88;;;;;;;9.74;100.00;98658.88;4849099;29;20038;-96
2024/03/23 01:53:08;;;;;;;13.55;6.22;;;;;;;10.62;100.00;98794.78;4848902;29;20034;-96
2024/03/23 01:55:36;;;;;;;15.02;6.45;;;;;;;10.28;100.00;98742.50;4849199;29;20043;-96
2024/03/23 01:58:02;;;;;;;15.68;6.80;;;;;;;10.55;100.00;98788.78;4864495;29;20102;-95
2024/03/23 02:00:28;;;;;;;9.60;5.68;;;;;;;10.46;100.00;98792.53;4849255;29;20037;-96
2024/03/23 02:02:55;;;;;;;11.90;6.15;;;;;;;10.50;100.00;98800.47;4864228;29;20054;-95
2024/03/23 02:05:22;;;;;;;11.38;5.82;;;;;;;9.58;100.00;98629.16;4848994;29;20041;-95
2024/03/23 02:07:48;;;;;;;11.70;5.45;;;;;;;10.34;100.00;98790.19;4848372;29;20046;-96
2024/03/23 02:10:14;;;;;;;9.98;5.15;;;;;;;9.46;100.00;98640.97;4864193;29;20037;-95
2024/03/23 02:12:42;;;;;;;9.82;5.38;;;;;;;9.84;100.00;98702.00;4828629;29;20058;-95
2024/03/23 02:15:08;;;;;;;10.35;5.18;;;;;;;10.39;100.00;98792.78;4826054;29;20050;-95
2024/03/23 02:17:35;;;;;;;9.70;5.75;;;;;;;9.48;100.00;98638.31;4826783;29;20064;-95
2024/03/23 02:20:01;;;;;;;13.27;5.50;;;;;;;9.52;100.00;98639.06;4827101;29;20095;-96
2024/03/23 02:22:36;;;;;;;12.85;6.38;;;;;;;10.39;100.00;98782.13;4826115;29;20046;-95
2024/03/23 02:25:04;;;;;;;14.13;5.50;;;;;;;10.32;100.00;98776.06;4826137;29;20099;-96
2024/03/23 02:27:30;;;;;;;13.00;5.85;;;;;;;9.57;100.00;98640.72;4826459;29;20054;-95
2024/03/23 02:29:56;;;;;;;11.85;6.00;;;;;;;10.33;100.00;98771.66;4826666;29;20074;-95
2024/03/23 02:32:22;;;;;;;13.05;5.95;;;;;;;9.73;100.00;98678.38;4826339;29;20050;-95
2024/03/23 02:34:48;;;;;;;14.75;6.50;;;;;;;10.04;100.00;98723.63;4841423;29;20054;-96
2024/03/23 02:37:14;;;;;;;11.55;5.60;;;;;;;10.05;100.00;98735.13;4826339;29;20046;-96
2024/03/23 02:39:39;;;;;;;10.15;5.18;;;;;;;10.07;100.00;98720.00;4826518;29;20051;-95
2024/03/23 02:42:07;;;;;;;12.80;6.47;;;;;;;9.66;100.00;98669.69;4826284;29;20046;-96
2024/03/23 02:44:33;;;;;;;11.95;5.97;;;;;;;9.57;100.00;98647.81;4826525;29;20046;-96
2024/03/23 02:46:59;;;;;;;14.65;6.10;;;;;;;10.10;100.00;98759.78;4825556;29;20415;-95
2024/03/23 02:49:25;;;;;;;12.63;6.32;;;;;;;9.40;100.00;98616.38;4841340;29;20050;-96
2024/03/23 02:51:51;;;;;;;14.98;6.70;;;;;;;10.02;100.00;98727.25;4826109;29;20148;-95
2024/03/23 02:54:17;;;;;;;17.05;6.53;;;;;;;10.16;100.00;98759.63;4841308;29;20047;-96
2024/03/23 02:56:43;;;;;;;13.18;6.35;;;;;;;9.69;100.00;98673.16;4826095;29;20078;-96
2024/03/23 02:59:11;;;;;;;13.10;6.07;;;;;;;10.02;100.00;98767.09;4826489;29;20057;-95
2024/03/23 03:01:37;;;;;;;15.80;7.03;;;;;;;9.76;100.00;98720.78;4825563;29;20050;-96
2024/03/23 03:04:05;;;;;;;16.40;6.95;;;;;;;9.19;100.00;98615.97;4825428;29;20046;-95
2024/03/23 03:06:31;;;;;;;13.43;6.65;;;;;;;9.91;100.00;98754.06;4809908;29;20158;-96
2024/03/23 03:08:57;;;;;;;12.80;5.80;;;;;;;9.60;100.00;98720.28;4792149;29;20055;-95
2024/03/23 03:11:23;;;;;;;14.65;6.47;;;;;;;9.12;100.00;98608.22;4792256;29;20053;-96
2024/03/23 03:13:49;;;;;;;15.52;6.85;;;;;;;8.97;100.00;98598.84;4791978;29;20173;-95
2024/03/23 03:16:17;;;;;;;13.63;7.15;;;;;;;8.95;100.00;98605.94;4793665;29;20170;-95
2024/03/23 03:18:43;;;;;;;10.88;5.63;;;;;;;9.29;100.00;98676.81;4841053;29;20531;-96
2024/03/23 03:21:10;;;;;;;12.73;6.53;;;;;;;9.17;100.00;98659.38;4824615;29;20499;-95
2024/03/23 03:23:37;;;;;;;12.52;6.22;;;;;;;9.81;100.00;98768.47;4825183;29;20050;-94
2024/03/23 03:26:03;;;;;;;12.10;5.95;;;;;;;9.81;100.00;98757.84;4825494;29;20070;-96
2024/03/23 03:28:30;;;;;;;16.75;6.78;;;;;;;9.22;100.00;98647.75;4825755;29;20054;-96
2024/03/23 03:30:57;;;;;;;13.10;6.72;;;;;;;9.01;100.00;98617.28;4840584;29;20522;-96
2024/03/23 03:33:24;;;;;;;14.73;7.13;;;;;;;9.76;100.00;98757.97;4825356;29;20051;-96
2024/03/23 03:35:51;;;;;;;14.00;6.20;;;;;;;9.74;100.00;98751.81;4825743;29;20050;-95
2024/03/23 03:38:18;;;;;;;12.57;5.97;;;;;;;9.75;100.00;98758.88;4806893;29;20047;-96
2024/03/23 03:40:46;;;;;;;11.82;6.78;;;;;;;8.87;100.00;98634.41;4809968;29;20141;-95
2024/03/23 03:43:12;;;;;;;13.18;6.43;;;;;;;9.36;100.00;98703.16;4825780;29;20042;-96
2024/03/23 03:45:38;;;;;;;14.15;6.43;;;;;;;9.70;100.00;98765.22;4840457;29;20084;-96
2024/03/23 03:48:04;;;;;;;13.57;5.97;;;;;;;8.80;100.00;98604.53;4825981;29;20042;-95
2024/03/23 03:50:32;;;;;;;11.35;6.05;;;;;;;9.68;100.00;98757.28;4825754;29;20078;-96
2024/03/23 03:52:58;;;;;;;16.17;6.22;;;;;;;9.70;100.00;98755.47;4825037;29;20072;-96
2024/03/23 03:55:24;;;;;;;11.95;6.70;;;;;;;9.58;100.00;98748.63;4825576;29;20495;-96
2024/03/23 03:57:50;;;;;;;17.15;7.13;;;;;;;9.60;100.00;98741.50;4840324;29;20145;-96
2024/03/23 04:00:16;;;;;;;16.15;6.50;;;;;;;9.42;100.00;98691.53;4827130;29;20058;-96
2024/03/23 04:02:42;;;;;;;16.42;7.03;;;;;;;9.18;100.00;98666.44;4827027;29;20070;-96
2024/03/23 04:05:10;;;;;;;14.60;6.72;;;;;;;8.88;100.00;98614.97;4828760;29;20463;-96
2024/03/23 04:07:38;;;;;;;15.05;7.50;;;;;;;8.82;100.00;98606.22;4830413;29;20511;-96
2024/03/23 04:10:07;;;;;;;16.48;7.18;;;;;;;8.71;100.00;98602.94;4831688;29;20050;-96
2024/03/23 04:12:36;;;;;;;13.63;6.57;;;;;;;8.60;100.00;98589.06;4831566;29;20050;-96
2024/03/23 04:15:04;;;;;;;11.88;6.38;;;;;;;9.20;100.00;98704.44;4830837;29;20051;-96
2024/03/23 04:17:32;;;;;;;14.35;6.63;;;;;;;9.51;100.00;98743.53;4832337;29;20050;-96
2024/03/23 04:20:03;;;;;;;13.85;6.72;;;;;;;9.40;100.00;98752.59;4828623;29;20065;-96
2024/03/23 04:22:29;;;;;;;12.35;5.60;;;;;;;8.58;100.00;98609.44;4824849;29;20070;-96
2024/03/23 04:24:57;;;;;;;14.25;7.32;;;;;;;8.62;100.00;98619.94;4819016;29;20051;-96
2024/03/23 04:27:23;;;;;;;17.73;7.50;;;;;;;8.53;100.00;98624.56;4806950;29;20146;-96
2024/03/23 04:29:50;;;;;;;15.40;6.97;;;;;;;8.41;100.00;98589.47;4806271;29;20047;-96
2024/03/23 04:32:16;;;;;;;15.93;7.57;;;;;;;8.59;100.00;98627.09;4818909;29;20051;-96
2024/03/23 04:34:43;;;;;;;15.23;7.05;;;;;;;8.36;100.00;98583.34;4828114;29;20050;-95
2024/03/23 04:37:10;;;;;;;14.80;6.90;;;;;;;9.35;100.00;98743.00;4828088;29;20047;-95
2024/03/23 04:39:36;;;;;;;13.23;6.72;;;;;;;9.33;100.00;98744.81;4816354;29;20043;-94
2024/03/23 04:42:04;;;;;;;17.73;6.57;;;;;;;9.40;100.00;98741.13;4811588;29;20043;-93
2024/03/23 04:44:30;;;;;;;15.63;7.25;;;;;;;9.27;100.00;98739.66;4812040;29;20051;-95
2024/03/23 04:46:56;;;;;;;15.43;6.80;;;;;;;9.15;100.00;98715.16;4809482;29;20099;-94
2024/03/23 04:49:23;;;;;;;14.85;7.65;;;;;;;8.97;100.00;98707.56;4810508;29;20051;-96
2024/03/23 04:51:48;;;;;;;15.57;6.97;;;;;;;8.48;100.00;98619.38;4809703;29;20051;-95
2024/03/23 04:54:14;;;;;;;14.73;7.78;;;;;;;8.73;100.00;98661.25;4809574;29;20059;-96
2024/03/23 04:56:42;;;;;;;15.32;7.50;;;;;;;9.30;100.00;98745.75;4810129;29;20047;-95
2024/03/23 04:59:09;;;;;;;18.30;7.63;;;;;;;9.33;100.00;98745.69;4809262;29;20574;-96
2024/03/23 05:01:38;;;;;;;12.55;7.82;;;;;;;9.38;100.00;98741.13;4809693;29;20055;-95
2024/03/23 05:04:05;;;;;;;17.13;7.40;;;;;;;8.85;100.00;98658.34;4810096;29;20046;-95
2024/03/23 05:06:30;;;;;;;19.15;7.72;;;;;;;9.38;100.00;98735.84;4811044;29;20059;-96
2024/03/23 05:08:56;;;;;;;15.57;7.00;;;;;;;8.58;100.00;98620.03;4810752;29;20407;-96
2024/03/23 05:11:23;;;;;;;14.88;6.65;;;;;;;9.01;100.00;98706.59;4810926;29;20118;-96
2024/03/23 05:13:49;;;;;;;15.23;7.40;;;;;;;8.99;100.00;98701.31;4810789;29;20073;-95
2024/03/23 05:16:16;;;;;;;14.23;6.60;;;;;;;9.35;100.00;98759.81;4811826;29;20499;-96
2024/03/23 05:18:42;;;;;;;13.25;7.07;;;;;;;9.30;100.00;98751.03;4811698;29;20500;-95
2024/03/23 05:21:08;;;;;;;14.05;6.18;;;;;;;9.03;100.00;98726.00;4814356;29;20107;-95
2024/03/23 05:23:35;;;;;;;13.50;6.65;;;;;;;9.25;100.00;98758.25;4831925;29;20030;-95
2024/03/23 05:26:01;;;;;;;15.93;7.43;;;;;;;9.27;100.00;98753.78;4835971;29;21054;-95
2024/03/23 05:28:27;;;;;;;12.45;6.55;;;;;;;8.42;100.00;98601.81;4849501;29;20036;-95
2024/03/23 05:30:54;;;;;;;14.55;6.60;;;;;;;9.31;100.00;98757.25;4849608;29;20054;-95
2024/03/23 05:33:21;;;;;;;15.02;6.78;;;;;;;8.55;100.00;98625.41;4849501;29;20105;-96
2024/03/23 05:35:55;;;;;;;13.13;6.50;;;;;;;8.48;100.00;98622.00;4849133;29;20046;-96
2024/03/23 05:38:22;;;;;;;15.57;7.57;;;;;;;9.33;100.00;98764.25;4837811;29;20078;-96
2024/03/23 05:40:53;;;;;;;14.13;7.90;;;;;;;8.47;100.00;98593.75;4843990;29;20399;-96
2024/03/23 05:43:19;;;;;;;18.75;8.50;;;;;;;9.50;100.00;98766.53;4827389;29;20107;-96
2024/03/23 05:45:45;;;;;;;16.85;6.95;;;;;;;9.53;100.00;98762.94;4828386;29;20050;-95
2024/03/23 05:48:11;;;;;;;17.65;8.27;;;;;;;9.58;100.00;98759.25;4828232;29;20114;-96
2024/03/23 05:50:39;;;;;;;14.52;7.13;;;;;;;8.84;100.00;98638.00;4827962;29;20050;-96
2024/03/23 05:53:05;;;;;;;14.50;7.55;;;;;;;9.62;100.00;98768.91;4843482;29;20539;-96
2024/03/23 05:55:32;;;;;;;13.57;6.55;;;;;;;9.73;100.00;98781.06;4827766;29;20099;-95
2024/03/23 05:57:59;;;;;;;14.77;6.95;;;;;;;8.83;100.00;98602.69;4828904;29;20126;-96
2024/03/23 06:00:26;;;;;;;14.88;7.32;;;;;;;9.56;100.00;98715.94;4828913;29;20053;-96
2024/03/23 06:02:52;;;;;;;16.30;7.82;;;;;;;9.05;100.00;98626.91;4843146;29;20050;-96
2024/03/23 06:05:18;;;;;;;12.07;6.75;;;;;;;9.88;100.00;98764.75;4827364;29;20062;-96
2024/03/23 06:07:51;;;;;;;12.57;6.10;;;;;;;9.30;100.00;98659.97;4827557;29;20054;-96
2024/03/23 06:10:17;;;;;;;15.55;7.07;;;;;;;9.39;100.00;98646.47;4827362;29;20039;-96
2024/03/23 06:12:46;;;;;;;15.98;7.05;;;;;;;9.31;100.00;98624.56;4830794;29;20479;-96
2024/03/23 06:15:12;;;;;;;15.50;7.53;;;;;;;10.21;100.00;98768.38;4831011;29;20083;-95
2024/03/23 06:17:38;;;;;;;17.08;8.02;;;;;;;10.23;100.00;98774.50;4846324;29;20051;-96
2024/03/23 06:20:06;;;;;;;15.30;7.40;;;;;;;10.24;100.00;98764.75;4828885;29;20122;-96
2024/03/23 06:22:39;;;;;;;13.18;7.00;;;;;;;10.07;100.00;98727.97;4832389;29;20046;-96
2024/03/23 06:25:08;;;;;;;14.98;7.25;;;;;;;10.17;100.00;98737.47;4841067;29;20121;-96
2024/03/23 06:30:31;;;;;;;14.88;6.75;;;;;;;9.89;100.00;98670.91;5207885;23;20029;-96
2024/03/23 08:06:06;;;;;;;13.70;7.03;;;;;;;13.74;100.00;98584.94;5319700;23;20920;-96
2024/03/23 08:08:32;;;;;;;14.35;8.05;;;;;;;13.50;100.00;98591.34;5260340;24;20065;-96
2024/03/23 09:07:05;;;;;;;10.98;5.95;;;;;;;16.46;100.00;98568.31;5192152;23;20124;-95
2024/03/23 09:22:18;;;;;;;8.77;5.20;;;;;;;17.05;100.00;98528.34;5288372;24;20069;-95
2024/03/23 09:24:46;;;;;;;10.15;5.38;;;;;;;17.49;100.00;98627.03;5431526;24;20063;-96
2024/03/23 09:27:51;;;;;;;;;;;;;;;;;;;;;
2024/03/23 09:30:34;;;;;;;9.55;5.93;;;;;;;17.62;100.00;98621.81;5798966;24;20029;-96
2024/03/23 09:33:01;;;;;;;9.98;5.45;;;;;;;17.56;100.00;98609.59;5689011;24;20056;-95
2024/03/23 09:46:52;;;;;;;11.80;6.10;;;;;;;18.10;100.00;98598.38;5790770;23;20025;-95
2024/03/23 09:55:25;;;;;;;8.63;5.07;;;;;;;18.04;100.00;98572.72;5330866;24;20029;31
2024/03/23 09:57:52;;;;;;;9.30;5.18;;;;;;;17.61;100.00;98464.16;5138775;24;20062;-96
2024/03/23 10:00:54;;;;;;;8.40;4.18;;;;;;;18.18;100.00;98571.00;4821768;29;20071;-95
2024/03/23 10:07:22;;;;;;;4.90;3.13;;;;;;;18.24;100.00;98450.38;4731370;30;20060;-95
2024/03/23 10:10:12;;;;;;;9.40;3.50;;;;;;;18.90;100.00;98544.94;4731655;30;20063;-96
2024/03/23 10:12:53;;;;;;;6.68;3.65;;;;;;;18.49;100.00;98505.34;4752163;30;20056;-96
2024/03/23 10:15:20;;;;;;;7.03;3.55;;;;;;;18.87;100.00;98531.69;4749234;30;20052;-96
2024/03/23 10:17:47;;;;;;;5.30;2.80;;;;;;;18.40;100.00;98433.25;4762832;30;20047;-95
2024/03/23 10:20:13;;;;;;;4.95;3.10;;;;;;;18.91;100.00;98479.34;4763910;30;20112;-96
2024/03/23 10:22:41;;;;;;;6.60;3.72;;;;;;;19.16;100.00;98518.13;4803244;29;20049;-96
2024/03/23 10:25:27;;;;;;;5.97;3.33;;;;;;;18.56;100.00;98422.34;4841922;24;20060;-96
2024/03/23 10:35:32;;;;;;;6.53;3.60;;;;;;;20.00;94.17;98504.34;4856508;23;20075;-96
2024/03/23 10:38:58;;;;;;;3.85;2.10;;;;;;;20.20;71.82;98500.22;4985859;23;20061;-96
2024/03/23 10:56:04;;;;;;;6.53;2.88;;;;;;;19.19;59.39;98332.81;4953418;24;20030;-94
2024/03/23 10:58:41;;;;;;;3.08;1.98;;;;;;;19.40;58.97;98354.69;5150748;23;20042;-95
2024/03/23 11:13:31;;;;;;;3.60;1.90;;;;;;;19.43;55.92;98338.31;5447954;24;20050;-96
2024/03/23 11:25:38;;;;;;;4.50;2.03;;;;;;;19.34;59.12;98432.44;1739364;23;20336;-97
2024/03/23 11:28:18;;;;;;;6.25;3.50;;;;;;;18.83;59.93;98360.44;4825826;29;20058;-96
2024/03/23 11:30:47;;;;;;;5.93;2.65;;;;;;;19.31;60.22;98449.72;4823039;29;20047;-95
2024/03/23 11:33:14;;;;;;;5.05;3.05;;;;;;;18.55;60.70;98305.69;4828675;29;20133;-96
2024/03/23 11:35:40;;;;;;;5.70;3.30;;;;;;;19.25;62.71;98439.34;4832305;29;20046;-96
2024/03/23 11:38:07;;;;;;;6.07;3.00;;;;;;;19.31;63.10;98444.31;4974698;24;20091;-95
2024/03/23 11:40:36;;;;;;;4.40;2.47;;;;;;;19.08;63.49;98440.47;4805243;29;20050;-96
2024/03/23 11:43:24;;;;;;;5.50;2.55;;;;;;;19.03;63.83;98434.53;4390361;23;20218;-96
2024/03/23 11:45:57;;;;;;;6.25;2.75;;;;;;;19.25;63.14;98439.34;4819382;29;20130;-96
2024/03/23 11:48:27;;;;;;;5.05;2.78;;;;;;;19.07;62.55;98423.44;4820988;29;20054;-96
2024/03/23 11:50:57;;;;;;;3.88;2.78;;;;;;;19.16;63.13;98413.88;4806560;29;20062;-96
2024/03/23 11:53:32;;;;;;;5.00;2.50;;;;;;;19.11;64.62;98424.09;4808545;29;20054;-96
2024/03/23 11:56:00;;;;;;;5.07;2.42;;;;;;;19.08;63.83;98414.41;4894202;24;20058;-96
2024/03/23 12:04:44;;;;;;;6.45;2.95;;;;;;;19.80;62.02;98400.50;4867204;24;20055;-95
2024/03/23 12:13:44;;;;;;;5.55;1.85;;;;;;;18.63;58.71;98287.19;4853169;29;20030;-96
2024/03/23 12:19:56;;;;;;;3.88;2.00;;;;;;;19.86;58.40;98400.06;4840146;29;20052;-96
2024/03/23 12:22:29;;;;;;;3.28;1.90;;;;;;;20.08;57.20;98404.78;4825184;29;20050;-96
2024/03/23 12:25:00;;;;;;;2.65;1.55;;;;;;;20.02;56.17;98386.31;4850617;29;20042;-96
2024/03/23 12:27:26;;;;;;;5.07;1.98;;;;;;;19.63;57.79;98390.84;4822954;29;20046;-95
2024/03/23 12:32:50;;;;;;;3.10;2.17;;;;;;;19.48;59.15;98400.88;4828757;24;20058;-96
2024/03/23 12:35:59;;;;;;;3.30;2.10;;;;;;;18.72;59.13;98276.78;4808270;29;20035;-96
2024/03/23 12:38:32;;;;;;;3.33;1.95;;;;;;;18.88;58.47;98272.94;4812618;29;20047;-96
2024/03/23 12:41:11;;;;;;;2.53;1.70;;;;;;;18.87;58.17;98256.88;4830747;29;20053;-96
2024/03/23 12:43:45;;;;;;;5.50;2.45;;;;;;;18.82;57.27;98245.53;4834880;29;20134;-95
2024/03/23 12:46:11;;;;;;;3.92;1.67;;;;;;;19.45;57.87;98308.53;4800558;30;20048;-96
2024/03/23 12:49:17;;;;;;;3.65;1.50;;;;;;;19.36;57.48;98301.09;4816983;29;20061;-96
2024/03/23 12:52:08;;;;;;;3.78;1.65;;;;;;;19.28;55.47;98258.53;4824343;29;20060;-96
2024/03/23 12:54:35;;;;;;;4.03;1.42;;;;;;;19.41;57.39;98253.09;4811581;29;20077;-96
2024/03/23 12:57:02;;;;;;;2.83;1.83;;;;;;;20.19;57.98;98352.72;4808704;29;20058;-96
2024/03/23 12:59:31;;;;;;;4.10;1.48;;;;;;;19.12;57.68;98222.81;4809841;29;20048;-96
2024/03/23 13:06:21;;;;;;;2.67;1.40;;;;;;;19.34;58.21;98233.78;5581430;24;20025;-96
2024/03/23 13:12:13;;;;;;;3.25;1.40;;;;;;;19.09;57.06;98234.69;5074572;24;20141;-96
2024/03/23 13:14:43;;;;;;;3.13;1.75;;;;;;;20.13;56.61;98358.56;4830131;29;20537;-96
2024/03/23 13:18:14;;;;;;;1.58;1.15;;;;;;;19.38;56.46;98238.00;4829186;29;20114;-96
2024/03/23 13:20:44;;;;;;;2.05;1.40;;;;;;;20.32;56.34;98352.69;4837903;29;20033;-95
2024/03/23 13:23:17;;;;;;;2.35;1.30;;;;;;;19.23;54.56;98217.53;4844795;29;20077;-96
2024/03/23 13:25:53;;;;;;;4.10;0.93;;;;;;;19.55;54.52;98346.50;4839620;29;20049;-96
2024/03/23 13:28:21;;;;;;;5.05;1.10;;;;;;;18.95;54.88;98261.72;4844089;29;20046;-96
2024/03/23 13:30:51;;;;;;;2.50;0.98;;;;;;;19.64;54.98;98346.72;4842924;29;20079;-96
2024/03/23 13:33:18;;;;;;;2.28;1.30;;;;;;;19.50;53.41;98360.31;4823404;29;20586;-96
2024/03/23 13:35:50;;;;;;;2.65;1.15;;;;;;;19.01;53.54;98234.38;4824659;29;20060;-96
2024/03/23 13:38:38;;;;;;;2.05;0.77;;;;;;;19.77;53.13;98353.97;4848400;29;20054;-95
2024/03/23 13:41:06;;;;;;;2.25;1.10;;;;;;;18.64;54.33;98229.66;4841649;29;20045;-96
2024/03/23 13:43:44;;;;;;;2.58;1.00;;;;;;;18.52;55.49;98295.13;4834487;29;20051;-96
2024/03/23 13:46:12;;;;;;;2.35;0.90;;;;;;;18.49;56.23;98244.16;4827607;29;20039;-96
2024/03/23 13:48:42;;;;;;;2.05;0.93;;;;;;;18.58;55.68;98230.06;4836910;29;20046;-96
2024/03/23 13:51:24;;;;;;;1.67;0.90;;;;;;;18.64;56.21;98224.28;4840160;29;20115;-96
2024/03/23 13:53:54;;;;;;;;;;;;;;;19.42;57.21;98338.41;4831268;29;20050;-95
2024/03/23 13:56:34;;;;;;;2.50;1.35;;;;;;;19.56;57.51;98332.03;4842386;29;19932;-96
2024/03/23 14:02:38;;;;;;;1.30;0.77;;;;;;;19.67;57.63;98324.94;4827323;29;20050;-96
2024/03/23 14:05:05;;;;;;;2.40;1.13;;;;;;;19.56;55.93;98246.63;4828072;29;20110;-96
2024/03/23 14:07:33;;;;;;;4.03;1.23;;;;;;;19.95;57.04;98324.78;4839765;29;20077;-96
2024/03/23 14:13:06;;;;;;;3.53;1.33;;;;;;;19.62;56.22;98323.53;4821338;29;20054;-96
2024/03/23 14:19:34;;;;;;;2.70;1.20;;;;;;;18.72;57.39;98220.22;4804190;29;20476;-95
2024/03/23 14:24:40;;;;;;;4.50;1.55;;;;;;;18.28;58.42;98203.41;4842870;29;20083;-96
2024/03/23 14:27:07;;;;;;;1.88;1.27;;;;;;;19.18;58.17;98335.59;4824030;29;20133;-95
2024/03/23 14:29:36;;;;;;;2.08;1.00;;;;;;;18.25;58.59;98220.63;4832033;29;20054;-96
2024/03/23 14:32:05;;;;;;;2.40;1.25;;;;;;;18.83;59.33;98342.44;4853161;24;20054;-96
2024/03/23 14:34:36;;;;;;;2.42;1.50;;;;;;;19.06;59.64;98340.00;4817155;29;20055;-96
2024/03/23 14:37:03;;;;;;;2.83;1.15;;;;;;;18.64;59.17;98255.72;4825644;29;20127;-96
2024/03/23 14:39:55;;;;;;;1.15;0.82;;;;;;;19.02;59.58;98333.97;4812990;29;20067;-96
2024/03/23 14:42:26;;;;;;;5.03;1.15;;;;;;;19.05;58.68;98327.50;4822705;29;20063;-96
2024/03/23 14:44:57;;;;;;;1.20;0.63;;;;;;;18.18;59.43;98218.47;4828283;29;20055;-96
2024/03/23 14:47:25;;;;;;;1.58;0.88;;;;;;;18.80;59.24;98314.81;4814685;29;20043;-96
2024/03/23 14:50:27;;;;;;;2.35;1.10;;;;;;;17.75;59.46;98172.84;4830550;29;20058;-96
2024/03/23 14:53:02;;;;;;;2.15;0.80;;;;;;;18.59;60.75;98315.28;4817069;29;20050;-96
2024/03/23 14:55:35;;;;;;;3.22;0.93;;;;;;;18.34;60.79;98323.28;4822980;29;20115;-96
2024/03/23 14:58:01;;;;;;;3.95;1.23;;;;;;;18.56;60.70;98331.63;4812123;29;20050;-95
2024/03/23 15:00:30;;;;;;;4.05;1.30;;;;;;;17.88;58.86;98199.84;4802880;29;20050;-95
2024/03/23 15:02:57;;;;;;;3.25;1.55;;;;;;;18.77;58.93;98336.56;4812964;29;20050;-95
2024/03/23 15:05:23;;;;;;;2.97;1.30;;;;;;;18.82;59.59;98332.63;4801622;29;20042;-96
2024/03/23 15:07:53;;;;;;;2.55;1.40;;;;;;;18.05;59.90;98207.66;4810532;29;20054;-96
2024/03/23 15:10:21;;;;;;;2.20;1.00;;;;;;;18.79;59.19;98342.75;4810187;29;20115;-95
2024/03/23 15:12:47;;;;;;;1.58;0.93;;;;;;;18.87;57.87;98352.03;4814123;29;20065;-95
2024/03/23 15:15:15;;;;;;;2.22;0.73;;;;;;;18.58;57.30;98312.69;4808037;29;20035;-96
2024/03/23 15:17:44;;;;;;;1.90;1.13;;;;;;;18.54;57.80;98321.94;4814747;29;20055;-96
2024/03/23 15:20:12;;;;;;;6.18;2.15;;;;;;;17.56;59.12;98246.63;4810002;29;20070;-96
2024/03/23 15:22:38;;;;;;;3.65;1.85;;;;;;;17.30;60.79;98231.31;4801254;29;20055;-96
2024/03/23 15:25:08;;;;;;;2.15;1.23;;;;;;;17.98;60.87;98367.75;4810005;29;20039;-96
2024/03/23 15:27:38;;;;;;;2.55;1.30;;;;;;;17.81;61.44;98371.47;4813186;29;20080;-96
2024/03/23 15:30:09;;;;;;;4.95;2.45;;;;;;;17.66;62.21;98362.56;4809555;29;20064;-94
2024/03/23 15:32:40;;;;;;;3.65;1.88;;;;;;;17.04;62.96;98362.75;4791347;29;20154;-96
2024/03/23 15:35:07;;;;;;;4.82;2.08;;;;;;;17.06;63.71;98370.72;4800411;29;20051;-95
2024/03/23 15:37:39;;;;;;;3.70;1.45;;;;;;;16.09;63.29;98200.13;4809337;29;20123;-95
2024/03/23 15:40:10;;;;;;;2.33;1.90;;;;;;;16.20;64.07;98224.50;4821780;29;20062;-95
2024/03/23 15:42:45;;;;;;;2.58;1.77;;;;;;;16.99;65.05;98364.84;4810230;29;20161;-96
2024/03/23 15:45:11;;;;;;;2.25;1.20;;;;;;;16.50;66.02;98303.28;4810737;29;20073;-96
2024/03/23 15:47:38;;;;;;;5.13;1.80;;;;;;;16.14;66.75;98283.84;4817494;29;20050;-95
2024/03/23 15:50:08;;;;;;;5.25;2.65;;;;;;;16.71;67.53;98353.00;4811502;29;20133;-96
2024/03/23 15:52:37;;;;;;;3.63;1.55;;;;;;;16.22;67.17;98284.28;4807875;29;20051;-95
2024/03/23 15:55:06;;;;;;;5.50;2.08;;;;;;;16.30;66.90;98253.47;4803677;29;20112;-94
2024/03/23 15:57:42;;;;;;;5.53;2.00;;;;;;;16.93;66.45;98344.56;4816236;29;20055;-96
2024/03/23 16:00:19;;;;;;;3.90;1.92;;;;;;;16.41;66.61;98251.00;4815009;29;20534;-96
2024/03/23 16:02:54;;;;;;;3.85;1.85;;;;;;;17.02;66.52;98352.09;4814188;29;20032;-96
2024/03/23 16:05:27;;;;;;;2.92;1.77;;;;;;;15.99;67.55;98210.50;4805016;29;20061;-96
2024/03/23 16:07:54;;;;;;;3.90;1.83;;;;;;;16.82;69.03;98349.72;4811341;29;20133;-95
2024/03/23 16:10:20;;;;;;;5.63;2.20;;;;;;;15.95;69.22;98208.94;4812959;29;20046;-96